sensor_id;sensor_type;location;lat;lon;timestamp;P1;durP1;ratioP1;P2;durP2;ratioP2
12950;SDS011;6540;50.858;7.232;2023-05-07T00:00:26;2.60;;;2.40;;
12950;SDS011;6540;50.858;7.232;2023-05-07T00:02:51;2.40;;;2.20;;
12950;SDS011;6540;50.858;7.232;2023-05-07T00:05:17;3.10;;;1.90;;
12950;SDS011;6540;50.858;7.232;2023-05-07T00:07:43;2.27;;;2.13;;
12950;SDS011;6540;50.858;7.232;2023-05-07T00:10:08;2.30;;;2.10;;
12950;SDS011;6540;50.858;7.232;2023-05-07T00:12:35;2.37;;;2.17;;
12950;SDS011;6540;50.858;7.232;2023-05-07T00:15:01;2.87;;;2.03;;
12950;SDS011;6540;50.858;7.232;2023-05-07T00:17:28;3.43;;;2.97;;
12950;SDS011;6540;50.858;7.232;2023-05-07T00:19:54;3.90;;;2.90;;
12950;SDS011;6540;50.858;7.232;2023-05-07T00:22:19;3.00;;;2.60;;
12950;SDS011;6540;50.858;7.232;2023-05-07T00:24:45;2.80;;;2.43;;
12950;SDS011;6540;50.858;7.232;2023-05-07T00:27:10;2.53;;;2.30;;
12950;SDS011;6540;50.858;7.232;2023-05-07T00:29:36;2.50;;;2.20;;
12950;SDS011;6540;50.858;7.232;2023-05-07T00:32:01;2.97;;;2.17;;
12950;SDS011;6540;50.858;7.232;2023-05-07T00:34:27;2.23;;;2.03;;
12950;SDS011;6540;50.858;7.232;2023-05-07T00:36:52;2.70;;;2.50;;
12950;SDS011;6540;50.858;7.232;2023-05-07T00:39:18;2.97;;;2.47;;
12950;SDS011;6540;50.858;7.232;2023-05-07T00:41:43;4.63;;;2.20;;
12950;SDS011;6540;50.858;7.232;2023-05-07T00:44:08;3.63;;;2.70;;
12950;SDS011;6540;50.858;7.232;2023-05-07T00:46:34;3.53;;;3.23;;
12950;SDS011;6540;50.858;7.232;2023-05-07T00:48:59;3.47;;;2.70;;
12950;SDS011;6540;50.858;7.232;2023-05-07T00:51:25;2.83;;;2.60;;
12950;SDS011;6540;50.858;7.232;2023-05-07T00:53:52;2.70;;;2.50;;
12950;SDS011;6540;50.858;7.232;2023-05-07T00:56:19;2.83;;;2.53;;
12950;SDS011;6540;50.858;7.232;2023-05-07T00:58:46;2.80;;;2.60;;
12950;SDS011;6540;50.858;7.232;2023-05-07T01:01:12;2.57;;;2.37;;
12950;SDS011;6540;50.858;7.232;2023-05-07T01:03:37;3.83;;;3.10;;
12950;SDS011;6540;50.858;7.232;2023-05-07T01:06:03;7.70;;;2.80;;
12950;SDS011;6540;50.858;7.232;2023-05-07T01:08:29;2.47;;;2.27;;
12950;SDS011;6540;50.858;7.232;2023-05-07T01:10:56;3.00;;;2.70;;
12950;SDS011;6540;50.858;7.232;2023-05-07T01:13:22;2.67;;;2.47;;
12950;SDS011;6540;50.858;7.232;2023-05-07T01:15:49;3.00;;;2.70;;
12950;SDS011;6540;50.858;7.232;2023-05-07T01:18:15;2.90;;;2.60;;
12950;SDS011;6540;50.858;7.232;2023-05-07T01:20:40;3.00;;;2.60;;
12950;SDS011;6540;50.858;7.232;2023-05-07T01:23:06;2.50;;;2.30;;
12950;SDS011;6540;50.858;7.232;2023-05-07T01:25:32;3.03;;;2.73;;
12950;SDS011;6540;50.858;7.232;2023-05-07T01:27:57;2.13;;;2.03;;
12950;SDS011;6540;50.858;7.232;2023-05-07T01:30:25;2.80;;;2.60;;
12950;SDS011;6540;50.858;7.232;2023-05-07T01:32:52;2.10;;;1.90;;
12950;SDS011;6540;50.858;7.232;2023-05-07T01:35:27;2.80;;;2.33;;
12950;SDS011;6540;50.858;7.232;2023-05-07T01:37:55;2.30;;;2.10;;
12950;SDS011;6540;50.858;7.232;2023-05-07T01:40:21;2.30;;;2.10;;
12950;SDS011;6540;50.858;7.232;2023-05-07T01:42:48;2.30;;;2.10;;
12950;SDS011;6540;50.858;7.232;2023-05-07T01:45:13;2.37;;;2.10;;
12950;SDS011;6540;50.858;7.232;2023-05-07T01:47:39;2.80;;;2.17;;
12950;SDS011;6540;50.858;7.232;2023-05-07T01:50:07;5.50;;;2.30;;
12950;SDS011;6540;50.858;7.232;2023-05-07T01:52:35;2.30;;;2.10;;
12950;SDS011;6540;50.858;7.232;2023-05-07T01:55:02;4.27;;;2.47;;
12950;SDS011;6540;50.858;7.232;2023-05-07T01:57:28;2.17;;;2.07;;
12950;SDS011;6540;50.858;7.232;2023-05-07T01:59:53;2.40;;;2.20;;
12950;SDS011;6540;50.858;7.232;2023-05-07T02:02:18;2.73;;;2.40;;
12950;SDS011;6540;50.858;7.232;2023-05-07T02:04:44;2.40;;;2.20;;
12950;SDS011;6540;50.858;7.232;2023-05-07T02:07:09;2.63;;;2.30;;
12950;SDS011;6540;50.858;7.232;2023-05-07T02:09:35;2.67;;;2.47;;
12950;SDS011;6540;50.858;7.232;2023-05-07T02:12:00;2.17;;;1.93;;
12950;SDS011;6540;50.858;7.232;2023-05-07T02:14:26;1.93;;;1.83;;
12950;SDS011;6540;50.858;7.232;2023-05-07T02:16:51;2.50;;;2.23;;
12950;SDS011;6540;50.858;7.232;2023-05-07T02:19:23;1.93;;;1.80;;
12950;SDS011;6540;50.858;7.232;2023-05-07T02:21:48;8.20;;;2.10;;
12950;SDS011;6540;50.858;7.232;2023-05-07T02:24:13;2.57;;;2.10;;
12950;SDS011;6540;50.858;7.232;2023-05-07T02:26:39;2.50;;;2.10;;
12950;SDS011;6540;50.858;7.232;2023-05-07T02:29:05;2.17;;;1.97;;
12950;SDS011;6540;50.858;7.232;2023-05-07T02:31:30;1.70;;;1.60;;
12950;SDS011;6540;50.858;7.232;2023-05-07T02:33:56;1.83;;;1.73;;
12950;SDS011;6540;50.858;7.232;2023-05-07T02:36:21;2.57;;;2.30;;
12950;SDS011;6540;50.858;7.232;2023-05-07T02:38:46;1.90;;;1.80;;
12950;SDS011;6540;50.858;7.232;2023-05-07T02:41:12;2.60;;;2.00;;
12950;SDS011;6540;50.858;7.232;2023-05-07T02:43:37;2.80;;;2.30;;
12950;SDS011;6540;50.858;7.232;2023-05-07T02:46:06;2.97;;;2.10;;
12950;SDS011;6540;50.858;7.232;2023-05-07T02:48:33;2.20;;;2.00;;
12950;SDS011;6540;50.858;7.232;2023-05-07T02:50:59;4.90;;;2.30;;
12950;SDS011;6540;50.858;7.232;2023-05-07T02:53:25;2.87;;;2.40;;
12950;SDS011;6540;50.858;7.232;2023-05-07T02:55:52;3.60;;;2.20;;
12950;SDS011;6540;50.858;7.232;2023-05-07T02:58:20;2.10;;;2.00;;
12950;SDS011;6540;50.858;7.232;2023-05-07T03:00:46;2.30;;;2.10;;
12950;SDS011;6540;50.858;7.232;2023-05-07T03:03:11;1.90;;;1.80;;
12950;SDS011;6540;50.858;7.232;2023-05-07T03:05:37;2.20;;;2.00;;
12950;SDS011;6540;50.858;7.232;2023-05-07T03:08:02;1.87;;;1.77;;
12950;SDS011;6540;50.858;7.232;2023-05-07T03:10:28;2.80;;;2.20;;
12950;SDS011;6540;50.858;7.232;2023-05-07T03:12:54;3.43;;;2.03;;
12950;SDS011;6540;50.858;7.232;2023-05-07T03:15:20;4.13;;;2.10;;
12950;SDS011;6540;50.858;7.232;2023-05-07T03:17:46;4.20;;;2.30;;
12950;SDS011;6540;50.858;7.232;2023-05-07T03:20:12;2.30;;;2.10;;
12950;SDS011;6540;50.858;7.232;2023-05-07T03:22:38;1.87;;;1.77;;
12950;SDS011;6540;50.858;7.232;2023-05-07T03:25:03;2.67;;;2.10;;
12950;SDS011;6540;50.858;7.232;2023-05-07T03:27:29;2.10;;;2.00;;
12950;SDS011;6540;50.858;7.232;2023-05-07T03:29:55;2.10;;;1.90;;
12950;SDS011;6540;50.858;7.232;2023-05-07T03:32:20;2.40;;;2.20;;
12950;SDS011;6540;50.858;7.232;2023-05-07T03:34:46;3.40;;;2.03;;
12950;SDS011;6540;50.858;7.232;2023-05-07T03:37:11;2.23;;;2.07;;
12950;SDS011;6540;50.858;7.232;2023-05-07T03:39:36;1.87;;;1.77;;
12950;SDS011;6540;50.858;7.232;2023-05-07T03:42:02;2.37;;;2.17;;
12950;SDS011;6540;50.858;7.232;2023-05-07T03:44:28;2.80;;;2.20;;
12950;SDS011;6540;50.858;7.232;2023-05-07T03:46:53;2.20;;;2.00;;
12950;SDS011;6540;50.858;7.232;2023-05-07T03:49:18;2.80;;;1.93;;
12950;SDS011;6540;50.858;7.232;2023-05-07T03:51:44;2.20;;;2.00;;
12950;SDS011;6540;50.858;7.232;2023-05-07T03:54:09;2.40;;;2.20;;
12950;SDS011;6540;50.858;7.232;2023-05-07T03:56:34;2.67;;;2.47;;
12950;SDS011;6540;50.858;7.232;2023-05-07T03:59:00;2.27;;;2.07;;
12950;SDS011;6540;50.858;7.232;2023-05-07T04:01:26;2.37;;;2.17;;
12950;SDS011;6540;50.858;7.232;2023-05-07T04:03:51;1.80;;;1.70;;
12950;SDS011;6540;50.858;7.232;2023-05-07T04:06:16;2.80;;;2.07;;
12950;SDS011;6540;50.858;7.232;2023-05-07T04:08:42;2.77;;;2.30;;
12950;SDS011;6540;50.858;7.232;2023-05-07T04:11:08;4.77;;;2.57;;
12950;SDS011;6540;50.858;7.232;2023-05-07T04:13:33;3.87;;;2.20;;
12950;SDS011;6540;50.858;7.232;2023-05-07T04:16:00;4.17;;;2.37;;
12950;SDS011;6540;50.858;7.232;2023-05-07T04:18:27;2.53;;;2.33;;
12950;SDS011;6540;50.858;7.232;2023-05-07T04:20:52;2.10;;;1.90;;
12950;SDS011;6540;50.858;7.232;2023-05-07T04:23:17;4.33;;;2.30;;
12950;SDS011;6540;50.858;7.232;2023-05-07T04:25:43;1.60;;;1.50;;
12950;SDS011;6540;50.858;7.232;2023-05-07T04:28:08;2.07;;;1.90;;
12950;SDS011;6540;50.858;7.232;2023-05-07T04:30:33;2.40;;;2.00;;
12950;SDS011;6540;50.858;7.232;2023-05-07T04:32:59;2.57;;;2.10;;
12950;SDS011;6540;50.858;7.232;2023-05-07T04:35:24;2.27;;;1.97;;
12950;SDS011;6540;50.858;7.232;2023-05-07T04:37:49;2.73;;;1.97;;
12950;SDS011;6540;50.858;7.232;2023-05-07T04:40:15;2.77;;;2.07;;
12950;SDS011;6540;50.858;7.232;2023-05-07T04:42:40;1.93;;;1.83;;
12950;SDS011;6540;50.858;7.232;2023-05-07T04:45:06;2.27;;;2.13;;
12950;SDS011;6540;50.858;7.232;2023-05-07T04:47:32;2.90;;;2.27;;
12950;SDS011;6540;50.858;7.232;2023-05-07T04:49:57;2.13;;;1.93;;
12950;SDS011;6540;50.858;7.232;2023-05-07T04:52:23;2.20;;;2.00;;
12950;SDS011;6540;50.858;7.232;2023-05-07T04:54:48;2.20;;;2.00;;
12950;SDS011;6540;50.858;7.232;2023-05-07T04:57:14;2.00;;;1.90;;
12950;SDS011;6540;50.858;7.232;2023-05-07T04:59:39;2.00;;;1.90;;
12950;SDS011;6540;50.858;7.232;2023-05-07T05:02:04;2.70;;;1.93;;
12950;SDS011;6540;50.858;7.232;2023-05-07T05:04:30;2.37;;;1.90;;
12950;SDS011;6540;50.858;7.232;2023-05-07T05:06:55;2.03;;;1.83;;
12950;SDS011;6540;50.858;7.232;2023-05-07T05:09:21;3.53;;;2.27;;
12950;SDS011;6540;50.858;7.232;2023-05-07T05:11:46;2.63;;;2.40;;
12950;SDS011;6540;50.858;7.232;2023-05-07T05:14:12;2.50;;;2.03;;
12950;SDS011;6540;50.858;7.232;2023-05-07T05:16:37;1.90;;;1.80;;
12950;SDS011;6540;50.858;7.232;2023-05-07T05:19:02;2.40;;;1.70;;
12950;SDS011;6540;50.858;7.232;2023-05-07T05:21:28;2.30;;;2.10;;
12950;SDS011;6540;50.858;7.232;2023-05-07T05:23:53;2.27;;;2.07;;
12950;SDS011;6540;50.858;7.232;2023-05-07T05:26:19;1.90;;;1.70;;
12950;SDS011;6540;50.858;7.232;2023-05-07T05:28:46;3.37;;;1.93;;
12950;SDS011;6540;50.858;7.232;2023-05-07T05:31:11;2.73;;;2.27;;
12950;SDS011;6540;50.858;7.232;2023-05-07T05:33:36;2.93;;;2.30;;
12950;SDS011;6540;50.858;7.232;2023-05-07T05:36:02;1.70;;;1.57;;
12950;SDS011;6540;50.858;7.232;2023-05-07T05:38:27;1.87;;;1.77;;
12950;SDS011;6540;50.858;7.232;2023-05-07T05:40:53;2.10;;;1.90;;
12950;SDS011;6540;50.858;7.232;2023-05-07T05:43:18;2.23;;;2.03;;
12950;SDS011;6540;50.858;7.232;2023-05-07T05:45:43;2.90;;;2.43;;
12950;SDS011;6540;50.858;7.232;2023-05-07T05:48:09;2.03;;;1.87;;
12950;SDS011;6540;50.858;7.232;2023-05-07T05:50:34;1.67;;;1.57;;
12950;SDS011;6540;50.858;7.232;2023-05-07T05:53:02;2.90;;;1.80;;
12950;SDS011;6540;50.858;7.232;2023-05-07T05:55:28;2.40;;;2.20;;
12950;SDS011;6540;50.858;7.232;2023-05-07T05:57:54;2.00;;;1.80;;
12950;SDS011;6540;50.858;7.232;2023-05-07T06:00:19;2.20;;;2.00;;
12950;SDS011;6540;50.858;7.232;2023-05-07T06:02:47;2.20;;;1.90;;
12950;SDS011;6540;50.858;7.232;2023-05-07T06:05:13;3.50;;;2.30;;
12950;SDS011;6540;50.858;7.232;2023-05-07T06:07:38;2.50;;;2.30;;
12950;SDS011;6540;50.858;7.232;2023-05-07T06:10:03;2.50;;;2.30;;
12950;SDS011;6540;50.858;7.232;2023-05-07T06:12:29;2.70;;;2.50;;
12950;SDS011;6540;50.858;7.232;2023-05-07T06:14:55;2.57;;;2.37;;
12950;SDS011;6540;50.858;7.232;2023-05-07T06:17:20;2.47;;;2.27;;
12950;SDS011;6540;50.858;7.232;2023-05-07T06:19:45;2.40;;;2.20;;
12950;SDS011;6540;50.858;7.232;2023-05-07T06:22:11;4.17;;;2.13;;
12950;SDS011;6540;50.858;7.232;2023-05-07T06:24:36;3.00;;;1.90;;
12950;SDS011;6540;50.858;7.232;2023-05-07T06:27:01;2.70;;;2.23;;
12950;SDS011;6540;50.858;7.232;2023-05-07T06:29:27;2.77;;;2.50;;
12950;SDS011;6540;50.858;7.232;2023-05-07T06:31:52;2.43;;;2.20;;
12950;SDS011;6540;50.858;7.232;2023-05-07T06:34:18;7.03;;;2.40;;
12950;SDS011;6540;50.858;7.232;2023-05-07T06:36:44;2.27;;;2.13;;
12950;SDS011;6540;50.858;7.232;2023-05-07T06:39:09;3.63;;;2.73;;
12950;SDS011;6540;50.858;7.232;2023-05-07T06:41:34;2.23;;;2.03;;
12950;SDS011;6540;50.858;7.232;2023-05-07T06:44:01;2.67;;;2.07;;
12950;SDS011;6540;50.858;7.232;2023-05-07T06:46:27;1.37;;;1.27;;
12950;SDS011;6540;50.858;7.232;2023-05-07T06:48:52;2.30;;;2.10;;
12950;SDS011;6540;50.858;7.232;2023-05-07T06:51:18;1.70;;;1.60;;
12950;SDS011;6540;50.858;7.232;2023-05-07T06:53:43;3.07;;;2.23;;
12950;SDS011;6540;50.858;7.232;2023-05-07T06:56:08;1.83;;;1.73;;
12950;SDS011;6540;50.858;7.232;2023-05-07T06:58:34;1.70;;;1.60;;
12950;SDS011;6540;50.858;7.232;2023-05-07T07:01:00;1.80;;;1.40;;
12950;SDS011;6540;50.858;7.232;2023-05-07T07:03:25;2.50;;;1.70;;
12950;SDS011;6540;50.858;7.232;2023-05-07T07:05:54;3.00;;;1.57;;
12950;SDS011;6540;50.858;7.232;2023-05-07T07:08:20;1.80;;;1.70;;
12950;SDS011;6540;50.858;7.232;2023-05-07T07:10:46;2.00;;;1.90;;
12950;SDS011;6540;50.858;7.232;2023-05-07T07:13:12;2.00;;;1.80;;
12950;SDS011;6540;50.858;7.232;2023-05-07T07:15:38;2.03;;;1.70;;
12950;SDS011;6540;50.858;7.232;2023-05-07T07:18:06;3.93;;;1.60;;
12950;SDS011;6540;50.858;7.232;2023-05-07T07:20:32;1.70;;;1.60;;
12950;SDS011;6540;50.858;7.232;2023-05-07T07:22:57;1.73;;;1.53;;
12950;SDS011;6540;50.858;7.232;2023-05-07T07:25:22;3.53;;;1.70;;
12950;SDS011;6540;50.858;7.232;2023-05-07T07:27:48;1.73;;;1.50;;
12950;SDS011;6540;50.858;7.232;2023-05-07T07:30:14;2.63;;;2.10;;
12950;SDS011;6540;50.858;7.232;2023-05-07T07:32:39;2.10;;;1.90;;
12950;SDS011;6540;50.858;7.232;2023-05-07T07:35:05;1.50;;;1.20;;
12950;SDS011;6540;50.858;7.232;2023-05-07T07:37:30;3.87;;;1.90;;
12950;SDS011;6540;50.858;7.232;2023-05-07T07:39:56;2.30;;;1.87;;
12950;SDS011;6540;50.858;7.232;2023-05-07T07:42:21;2.47;;;1.97;;
12950;SDS011;6540;50.858;7.232;2023-05-07T07:44:46;1.40;;;1.30;;
12950;SDS011;6540;50.858;7.232;2023-05-07T07:47:12;1.47;;;1.37;;
12950;SDS011;6540;50.858;7.232;2023-05-07T07:49:37;1.30;;;1.20;;
12950;SDS011;6540;50.858;7.232;2023-05-07T07:52:02;1.60;;;1.23;;
12950;SDS011;6540;50.858;7.232;2023-05-07T07:54:28;2.50;;;1.50;;
12950;SDS011;6540;50.858;7.232;2023-05-07T07:56:54;2.00;;;1.60;;
12950;SDS011;6540;50.858;7.232;2023-05-07T07:59:19;1.83;;;1.73;;
12950;SDS011;6540;50.858;7.232;2023-05-07T08:01:45;1.77;;;1.57;;
12950;SDS011;6540;50.858;7.232;2023-05-07T08:04:10;1.13;;;1.10;;
12950;SDS011;6540;50.858;7.232;2023-05-07T08:06:36;1.30;;;1.20;;
12950;SDS011;6540;50.858;7.232;2023-05-07T08:09:02;1.60;;;1.50;;
12950;SDS011;6540;50.858;7.232;2023-05-07T08:11:28;1.40;;;1.30;;
12950;SDS011;6540;50.858;7.232;2023-05-07T08:13:53;1.60;;;1.50;;
12950;SDS011;6540;50.858;7.232;2023-05-07T08:16:20;2.10;;;1.47;;
12950;SDS011;6540;50.858;7.232;2023-05-07T08:18:45;1.60;;;1.50;;
12950;SDS011;6540;50.858;7.232;2023-05-07T08:21:11;1.13;;;1.13;;
12950;SDS011;6540;50.858;7.232;2023-05-07T08:23:36;2.83;;;1.53;;
12950;SDS011;6540;50.858;7.232;2023-05-07T08:26:01;1.40;;;1.30;;
12950;SDS011;6540;50.858;7.232;2023-05-07T08:28:27;1.40;;;1.30;;
12950;SDS011;6540;50.858;7.232;2023-05-07T08:30:52;1.40;;;1.30;;
12950;SDS011;6540;50.858;7.232;2023-05-07T08:33:18;2.53;;;1.40;;
12950;SDS011;6540;50.858;7.232;2023-05-07T08:35:43;1.33;;;1.23;;
12950;SDS011;6540;50.858;7.232;2023-05-07T08:38:08;1.70;;;1.60;;
12950;SDS011;6540;50.858;7.232;2023-05-07T08:40:36;1.63;;;1.50;;
12950;SDS011;6540;50.858;7.232;2023-05-07T08:43:03;1.83;;;1.67;;
12950;SDS011;6540;50.858;7.232;2023-05-07T08:45:30;2.60;;;1.50;;
12950;SDS011;6540;50.858;7.232;2023-05-07T08:47:58;1.90;;;1.40;;
12950;SDS011;6540;50.858;7.232;2023-05-07T08:50:26;1.30;;;1.20;;
12950;SDS011;6540;50.858;7.232;2023-05-07T08:52:51;2.17;;;1.27;;
12950;SDS011;6540;50.858;7.232;2023-05-07T08:55:17;1.30;;;1.20;;
12950;SDS011;6540;50.858;7.232;2023-05-07T08:57:43;1.70;;;1.30;;
12950;SDS011;6540;50.858;7.232;2023-05-07T09:00:09;1.50;;;1.40;;
12950;SDS011;6540;50.858;7.232;2023-05-07T09:02:36;1.57;;;1.40;;
12950;SDS011;6540;50.858;7.232;2023-05-07T09:05:02;1.17;;;1.07;;
12950;SDS011;6540;50.858;7.232;2023-05-07T09:07:28;1.23;;;1.20;;
12950;SDS011;6540;50.858;7.232;2023-05-07T09:09:53;1.03;;;1.03;;
12950;SDS011;6540;50.858;7.232;2023-05-07T09:12:22;1.73;;;1.30;;
12950;SDS011;6540;50.858;7.232;2023-05-07T09:14:48;1.60;;;1.50;;
12950;SDS011;6540;50.858;7.232;2023-05-07T09:17:17;1.30;;;1.20;;
12950;SDS011;6540;50.858;7.232;2023-05-07T09:19:46;1.47;;;1.33;;
12950;SDS011;6540;50.858;7.232;2023-05-07T09:22:11;1.67;;;1.57;;
12950;SDS011;6540;50.858;7.232;2023-05-07T09:24:37;1.20;;;1.10;;
12950;SDS011;6540;50.858;7.232;2023-05-07T09:27:05;1.43;;;1.33;;
12950;SDS011;6540;50.858;7.232;2023-05-07T09:29:33;1.20;;;1.10;;
12950;SDS011;6540;50.858;7.232;2023-05-07T09:32:05;1.40;;;1.30;;
12950;SDS011;6540;50.858;7.232;2023-05-07T09:34:32;1.40;;;1.27;;
12950;SDS011;6540;50.858;7.232;2023-05-07T09:37:01;1.50;;;1.37;;
12950;SDS011;6540;50.858;7.232;2023-05-07T09:39:40;1.60;;;1.30;;
12950;SDS011;6540;50.858;7.232;2023-05-07T09:42:10;1.43;;;1.30;;
12950;SDS011;6540;50.858;7.232;2023-05-07T09:44:36;1.60;;;1.50;;
12950;SDS011;6540;50.858;7.232;2023-05-07T09:47:04;1.27;;;1.27;;
12950;SDS011;6540;50.858;7.232;2023-05-07T09:49:33;1.37;;;1.27;;
12950;SDS011;6540;50.858;7.232;2023-05-07T09:52:01;2.03;;;1.57;;
12950;SDS011;6540;50.858;7.232;2023-05-07T09:54:30;1.37;;;1.27;;
12950;SDS011;6540;50.858;7.232;2023-05-07T09:56:57;1.83;;;1.60;;
12950;SDS011;6540;50.858;7.232;2023-05-07T09:59:24;1.70;;;1.43;;
12950;SDS011;6540;50.858;7.232;2023-05-07T10:01:50;2.07;;;1.87;;
12950;SDS011;6540;50.858;7.232;2023-05-07T10:04:18;1.37;;;1.27;;
12950;SDS011;6540;50.858;7.232;2023-05-07T10:06:45;1.67;;;1.57;;
12950;SDS011;6540;50.858;7.232;2023-05-07T10:09:11;1.50;;;1.40;;
12950;SDS011;6540;50.858;7.232;2023-05-07T10:11:37;1.93;;;1.53;;
12950;SDS011;6540;50.858;7.232;2023-05-07T10:14:04;1.90;;;1.30;;
12950;SDS011;6540;50.858;7.232;2023-05-07T10:16:34;1.40;;;1.30;;
12950;SDS011;6540;50.858;7.232;2023-05-07T10:19:04;1.40;;;1.30;;
12950;SDS011;6540;50.858;7.232;2023-05-07T10:21:32;1.40;;;1.30;;
12950;SDS011;6540;50.858;7.232;2023-05-07T10:24:06;1.40;;;1.30;;
12950;SDS011;6540;50.858;7.232;2023-05-07T10:26:35;1.60;;;1.50;;
12950;SDS011;6540;50.858;7.232;2023-05-07T10:29:06;1.50;;;1.40;;
12950;SDS011;6540;50.858;7.232;2023-05-07T10:34:26;1.60;;;1.50;;
12950;SDS011;6540;50.858;7.232;2023-05-07T10:36:54;2.53;;;1.83;;
12950;SDS011;6540;50.858;7.232;2023-05-07T10:39:21;1.67;;;1.50;;
12950;SDS011;6540;50.858;7.232;2023-05-07T10:41:47;1.80;;;1.70;;
12950;SDS011;6540;50.858;7.232;2023-05-07T10:44:34;3.07;;;1.23;;
12950;SDS011;6540;50.858;7.232;2023-05-07T10:47:12;2.20;;;2.00;;
12950;SDS011;6540;50.858;7.232;2023-05-07T10:52:14;1.90;;;1.80;;
12950;SDS011;6540;50.858;7.232;2023-05-07T10:54:41;2.07;;;1.87;;
12950;SDS011;6540;50.858;7.232;2023-05-07T10:57:52;2.30;;;1.30;;
12950;SDS011;6540;50.858;7.232;2023-05-07T11:00:03;1.10;;;1.10;;
12950;SDS011;6540;50.858;7.232;2023-05-07T11:05:26;1.33;;;1.23;;
12950;SDS011;6540;50.858;7.232;2023-05-07T11:07:56;3.00;;;1.83;;
12950;SDS011;6540;50.858;7.232;2023-05-07T11:10:22;1.43;;;1.33;;
12950;SDS011;6540;50.858;7.232;2023-05-07T11:12:49;1.60;;;1.40;;
12950;SDS011;6540;50.858;7.232;2023-05-07T11:15:16;1.20;;;1.20;;
12950;SDS011;6540;50.858;7.232;2023-05-07T11:17:59;1.33;;;1.23;;
12950;SDS011;6540;50.858;7.232;2023-05-07T11:23:33;1.13;;;1.13;;
12950;SDS011;6540;50.858;7.232;2023-05-07T11:26:00;1.30;;;1.30;;
12950;SDS011;6540;50.858;7.232;2023-05-07T11:28:36;1.40;;;1.30;;
12950;SDS011;6540;50.858;7.232;2023-05-07T11:31:03;1.77;;;1.13;;
12950;SDS011;6540;50.858;7.232;2023-05-07T11:33:31;1.70;;;1.43;;
12950;SDS011;6540;50.858;7.232;2023-05-07T11:35:57;1.80;;;1.57;;
12950;SDS011;6540;50.858;7.232;2023-05-07T11:38:25;1.50;;;1.40;;
12950;SDS011;6540;50.858;7.232;2023-05-07T11:40:56;1.50;;;1.40;;
12950;SDS011;6540;50.858;7.232;2023-05-07T11:43:22;2.30;;;1.60;;
12950;SDS011;6540;50.858;7.232;2023-05-07T11:45:48;1.33;;;1.23;;
12950;SDS011;6540;50.858;7.232;2023-05-07T11:48:14;2.73;;;1.43;;
12950;SDS011;6540;50.858;7.232;2023-05-07T11:50:50;1.30;;;1.20;;
12950;SDS011;6540;50.858;7.232;2023-05-07T11:53:19;1.40;;;1.20;;
12950;SDS011;6540;50.858;7.232;2023-05-07T11:55:45;1.23;;;1.17;;
12950;SDS011;6540;50.858;7.232;2023-05-07T11:58:12;1.53;;;1.43;;
12950;SDS011;6540;50.858;7.232;2023-05-07T12:00:52;2.10;;;1.90;;
12950;SDS011;6540;50.858;7.232;2023-05-07T12:03:18;5.17;;;1.60;;
12950;SDS011;6540;50.858;7.232;2023-05-07T12:05:44;1.33;;;1.23;;
12950;SDS011;6540;50.858;7.232;2023-05-07T12:08:17;1.37;;;1.27;;
12950;SDS011;6540;50.858;7.232;2023-05-07T12:10:43;1.07;;;1.03;;
12950;SDS011;6540;50.858;7.232;2023-05-07T12:13:19;1.90;;;1.70;;
12950;SDS011;6540;50.858;7.232;2023-05-07T12:15:46;1.23;;;1.20;;
12950;SDS011;6540;50.858;7.232;2023-05-07T12:18:15;1.73;;;1.30;;
12950;SDS011;6540;50.858;7.232;2023-05-07T12:20:40;1.60;;;1.50;;
12950;SDS011;6540;50.858;7.232;2023-05-07T12:23:06;1.53;;;1.43;;
12950;SDS011;6540;50.858;7.232;2023-05-07T12:25:33;1.33;;;1.23;;
12950;SDS011;6540;50.858;7.232;2023-05-07T12:28:18;1.30;;;1.20;;
12950;SDS011;6540;50.858;7.232;2023-05-07T12:30:44;1.30;;;1.30;;
12950;SDS011;6540;50.858;7.232;2023-05-07T12:33:11;1.50;;;1.40;;
12950;SDS011;6540;50.858;7.232;2023-05-07T12:35:41;1.47;;;1.37;;
12950;SDS011;6540;50.858;7.232;2023-05-07T12:38:12;3.33;;;1.47;;
12950;SDS011;6540;50.858;7.232;2023-05-07T12:40:46;1.20;;;1.20;;
12950;SDS011;6540;50.858;7.232;2023-05-07T12:43:19;2.30;;;1.30;;
12950;SDS011;6540;50.858;7.232;2023-05-07T12:45:46;1.40;;;1.30;;
12950;SDS011;6540;50.858;7.232;2023-05-07T12:48:13;1.60;;;1.50;;
12950;SDS011;6540;50.858;7.232;2023-05-07T12:50:38;1.63;;;1.40;;
12950;SDS011;6540;50.858;7.232;2023-05-07T12:53:04;1.50;;;1.40;;
12950;SDS011;6540;50.858;7.232;2023-05-07T12:55:43;1.50;;;1.40;;
12950;SDS011;6540;50.858;7.232;2023-05-07T12:58:19;1.47;;;1.37;;
12950;SDS011;6540;50.858;7.232;2023-05-07T13:00:49;1.13;;;1.13;;
12950;SDS011;6540;50.858;7.232;2023-05-07T13:03:23;1.47;;;1.37;;
12950;SDS011;6540;50.858;7.232;2023-05-07T13:05:52;1.57;;;1.47;;
12950;SDS011;6540;50.858;7.232;2023-05-07T13:08:24;1.53;;;1.30;;
12950;SDS011;6540;50.858;7.232;2023-05-07T13:10:49;1.67;;;1.57;;
12950;SDS011;6540;50.858;7.232;2023-05-07T13:13:15;1.73;;;1.63;;
12950;SDS011;6540;50.858;7.232;2023-05-07T13:15:40;1.97;;;1.60;;
12950;SDS011;6540;50.858;7.232;2023-05-07T13:18:05;1.63;;;1.53;;
12950;SDS011;6540;50.858;7.232;2023-05-07T13:20:31;2.37;;;1.47;;
12950;SDS011;6540;50.858;7.232;2023-05-07T13:22:56;1.70;;;1.60;;
12950;SDS011;6540;50.858;7.232;2023-05-07T13:25:21;1.83;;;1.30;;
12950;SDS011;6540;50.858;7.232;2023-05-07T13:27:47;1.80;;;1.70;;
12950;SDS011;6540;50.858;7.232;2023-05-07T13:30:12;4.60;;;2.00;;
12950;SDS011;6540;50.858;7.232;2023-05-07T13:32:37;1.57;;;1.47;;
12950;SDS011;6540;50.858;7.232;2023-05-07T13:35:03;1.90;;;1.67;;
12950;SDS011;6540;50.858;7.232;2023-05-07T13:37:29;1.80;;;1.60;;
12950;SDS011;6540;50.858;7.232;2023-05-07T13:39:54;1.30;;;1.20;;
12950;SDS011;6540;50.858;7.232;2023-05-07T13:42:20;1.60;;;1.50;;
12950;SDS011;6540;50.858;7.232;2023-05-07T13:44:45;1.10;;;1.10;;
12950;SDS011;6540;50.858;7.232;2023-05-07T13:47:11;1.50;;;1.10;;
12950;SDS011;6540;50.858;7.232;2023-05-07T13:49:36;1.23;;;1.13;;
12950;SDS011;6540;50.858;7.232;2023-05-07T13:52:02;2.33;;;1.57;;
12950;SDS011;6540;50.858;7.232;2023-05-07T13:54:27;1.10;;;1.10;;
12950;SDS011;6540;50.858;7.232;2023-05-07T13:56:52;1.20;;;1.20;;
12950;SDS011;6540;50.858;7.232;2023-05-07T13:59:18;2.10;;;1.50;;
12950;SDS011;6540;50.858;7.232;2023-05-07T14:01:43;1.57;;;1.47;;
12950;SDS011;6540;50.858;7.232;2023-05-07T14:04:09;1.40;;;1.30;;
12950;SDS011;6540;50.858;7.232;2023-05-07T14:06:34;1.70;;;1.60;;
12950;SDS011;6540;50.858;7.232;2023-05-07T14:09:00;1.63;;;1.53;;
12950;SDS011;6540;50.858;7.232;2023-05-07T14:11:25;2.00;;;1.80;;
12950;SDS011;6540;50.858;7.232;2023-05-07T14:13:57;1.60;;;1.50;;
12950;SDS011;6540;50.858;7.232;2023-05-07T14:16:23;1.50;;;1.40;;
12950;SDS011;6540;50.858;7.232;2023-05-07T14:18:48;2.03;;;1.50;;
12950;SDS011;6540;50.858;7.232;2023-05-07T14:21:14;1.37;;;1.27;;
12950;SDS011;6540;50.858;7.232;2023-05-07T14:23:39;4.00;;;1.60;;
12950;SDS011;6540;50.858;7.232;2023-05-07T14:26:05;2.60;;;1.50;;
12950;SDS011;6540;50.858;7.232;2023-05-07T14:28:30;2.10;;;1.90;;
12950;SDS011;6540;50.858;7.232;2023-05-07T14:30:56;1.80;;;1.70;;
12950;SDS011;6540;50.858;7.232;2023-05-07T14:33:21;3.20;;;1.70;;
12950;SDS011;6540;50.858;7.232;2023-05-07T14:35:46;1.60;;;1.50;;
12950;SDS011;6540;50.858;7.232;2023-05-07T14:38:15;1.60;;;1.50;;
12950;SDS011;6540;50.858;7.232;2023-05-07T14:40:40;1.70;;;1.60;;
12950;SDS011;6540;50.858;7.232;2023-05-07T14:43:06;1.50;;;1.30;;
12950;SDS011;6540;50.858;7.232;2023-05-07T14:45:31;1.60;;;1.50;;
12950;SDS011;6540;50.858;7.232;2023-05-07T14:47:57;2.00;;;1.90;;
12950;SDS011;6540;50.858;7.232;2023-05-07T14:50:22;1.80;;;1.70;;
12950;SDS011;6540;50.858;7.232;2023-05-07T14:52:47;2.50;;;1.73;;
12950;SDS011;6540;50.858;7.232;2023-05-07T14:55:16;1.80;;;1.70;;
12950;SDS011;6540;50.858;7.232;2023-05-07T14:57:42;1.70;;;1.60;;
12950;SDS011;6540;50.858;7.232;2023-05-07T15:00:07;1.50;;;1.40;;
12950;SDS011;6540;50.858;7.232;2023-05-07T15:02:33;1.53;;;1.30;;
12950;SDS011;6540;50.858;7.232;2023-05-07T15:04:59;1.30;;;1.20;;
12950;SDS011;6540;50.858;7.232;2023-05-07T15:07:24;1.40;;;1.30;;